sensor_id;sensor_type;location;lat;lon;timestamp;P1;durP1;ratioP1;P2;durP2;ratioP2
27612;SDS011;15036;48.094;-1.690;2023-02-25T00:00:21;19.35;;;12.68;;
27612;SDS011;15036;48.094;-1.690;2023-02-25T00:02:47;20.83;;;11.95;;
27612;SDS011;15036;48.094;-1.690;2023-02-25T00:05:14;19.27;;;12.52;;
27612;SDS011;15036;48.094;-1.690;2023-02-25T00:07:40;18.40;;;12.95;;
27612;SDS011;15036;48.094;-1.690;2023-02-25T00:10:06;19.02;;;12.25;;
27612;SDS011;15036;48.094;-1.690;2023-02-25T00:12:35;21.70;;;12.48;;
27612;SDS011;15036;48.094;-1.690;2023-02-25T00:15:01;18.75;;;12.73;;
27612;SDS011;15036;48.094;-1.690;2023-02-25T00:17:27;20.00;;;13.05;;
27612;SDS011;15036;48.094;-1.690;2023-02-25T00:19:53;19.58;;;13.25;;
27612;SDS011;15036;48.094;-1.690;2023-02-25T00:22:21;21.42;;;12.68;;
27612;SDS011;15036;48.094;-1.690;2023-02-25T00:24:51;19.02;;;12.77;;
27612;SDS011;15036;48.094;-1.690;2023-02-25T00:27:18;24.85;;;13.38;;
27612;SDS011;15036;48.094;-1.690;2023-02-25T00:29:43;22.38;;;13.77;;
27612;SDS011;15036;48.094;-1.690;2023-02-25T00:32:09;18.85;;;13.15;;
27612;SDS011;15036;48.094;-1.690;2023-02-25T00:34:34;20.17;;;14.00;;
27612;SDS011;15036;48.094;-1.690;2023-02-25T00:36:59;27.60;;;14.82;;
27612;SDS011;15036;48.094;-1.690;2023-02-25T00:39:25;21.90;;;14.45;;
27612;SDS011;15036;48.094;-1.690;2023-02-25T00:42:05;22.50;;;14.52;;
27612;SDS011;15036;48.094;-1.690;2023-02-25T00:44:42;20.85;;;13.90;;
27612;SDS011;15036;48.094;-1.690;2023-02-25T00:47:12;25.63;;;15.43;;
27612;SDS011;15036;48.094;-1.690;2023-02-25T00:49:38;23.95;;;14.38;;
27612;SDS011;15036;48.094;-1.690;2023-02-25T00:52:06;22.80;;;13.93;;
27612;SDS011;15036;48.094;-1.690;2023-02-25T00:54:32;23.23;;;13.98;;
27612;SDS011;15036;48.094;-1.690;2023-02-25T00:56:58;21.98;;;14.18;;
27612;SDS011;15036;48.094;-1.690;2023-02-25T00:59:24;18.38;;;13.88;;
27612;SDS011;15036;48.094;-1.690;2023-02-25T01:01:49;22.65;;;14.88;;
27612;SDS011;15036;48.094;-1.690;2023-02-25T01:04:15;24.98;;;15.25;;
27612;SDS011;15036;48.094;-1.690;2023-02-25T01:06:40;27.95;;;15.10;;
27612;SDS011;15036;48.094;-1.690;2023-02-25T01:09:06;22.90;;;14.60;;
27612;SDS011;15036;48.094;-1.690;2023-02-25T01:11:38;24.63;;;15.70;;
27612;SDS011;15036;48.094;-1.690;2023-02-25T01:14:13;23.88;;;15.52;;
27612;SDS011;15036;48.094;-1.690;2023-02-25T01:16:41;26.15;;;15.18;;
27612;SDS011;15036;48.094;-1.690;2023-02-25T01:19:08;24.13;;;15.38;;
27612;SDS011;15036;48.094;-1.690;2023-02-25T01:21:38;26.90;;;16.30;;
27612;SDS011;15036;48.094;-1.690;2023-02-25T01:24:13;26.10;;;15.93;;
27612;SDS011;15036;48.094;-1.690;2023-02-25T01:26:40;23.45;;;15.65;;
27612;SDS011;15036;48.094;-1.690;2023-02-25T01:29:07;23.00;;;16.45;;
27612;SDS011;15036;48.094;-1.690;2023-02-25T01:31:34;23.30;;;15.75;;
27612;SDS011;15036;48.094;-1.690;2023-02-25T01:34:00;24.38;;;15.77;;
27612;SDS011;15036;48.094;-1.690;2023-02-25T01:36:28;23.15;;;16.08;;
27612;SDS011;15036;48.094;-1.690;2023-02-25T01:38:54;23.63;;;15.82;;
27612;SDS011;15036;48.094;-1.690;2023-02-25T01:41:21;23.63;;;15.85;;
27612;SDS011;15036;48.094;-1.690;2023-02-25T01:46:31;23.92;;;16.10;;
27612;SDS011;15036;48.094;-1.690;2023-02-25T01:48:56;21.00;;;15.27;;
27612;SDS011;15036;48.094;-1.690;2023-02-25T01:51:22;25.40;;;16.02;;
27612;SDS011;15036;48.094;-1.690;2023-02-25T01:53:51;27.00;;;16.05;;
27612;SDS011;15036;48.094;-1.690;2023-02-25T01:56:19;24.48;;;16.67;;
27612;SDS011;15036;48.094;-1.690;2023-02-25T01:58:49;25.55;;;16.05;;
27612;SDS011;15036;48.094;-1.690;2023-02-25T02:01:18;23.05;;;15.85;;
27612;SDS011;15036;48.094;-1.690;2023-02-25T02:03:46;22.30;;;15.67;;
27612;SDS011;15036;48.094;-1.690;2023-02-25T02:06:20;21.90;;;15.73;;
27612;SDS011;15036;48.094;-1.690;2023-02-25T02:08:50;25.23;;;15.98;;
27612;SDS011;15036;48.094;-1.690;2023-02-25T02:11:15;21.58;;;15.68;;
27612;SDS011;15036;48.094;-1.690;2023-02-25T02:13:43;24.27;;;16.45;;
27612;SDS011;15036;48.094;-1.690;2023-02-25T02:16:29;23.08;;;15.50;;
27612;SDS011;15036;48.094;-1.690;2023-02-25T02:19:06;23.60;;;14.88;;
27612;SDS011;15036;48.094;-1.690;2023-02-25T02:21:48;23.95;;;16.13;;
27612;SDS011;15036;48.094;-1.690;2023-02-25T02:24:51;22.98;;;16.33;;
27612;SDS011;15036;48.094;-1.690;2023-02-25T02:33:35;23.90;;;15.88;;
27612;SDS011;15036;48.094;-1.690;2023-02-25T02:41:45;23.52;;;16.13;;
27612;SDS011;15036;48.094;-1.690;2023-02-25T02:44:19;25.50;;;15.35;;
27612;SDS011;15036;48.094;-1.690;2023-02-25T02:47:01;22.27;;;14.93;;
27612;SDS011;15036;48.094;-1.690;2023-02-25T02:49:32;22.10;;;15.02;;
27612;SDS011;15036;48.094;-1.690;2023-02-25T02:52:05;23.17;;;15.38;;
27612;SDS011;15036;48.094;-1.690;2023-02-25T02:54:38;26.42;;;15.75;;
27612;SDS011;15036;48.094;-1.690;2023-02-25T02:57:07;23.08;;;15.70;;
27612;SDS011;15036;48.094;-1.690;2023-02-25T02:59:39;25.75;;;15.95;;
27612;SDS011;15036;48.094;-1.690;2023-02-25T03:02:16;21.92;;;14.68;;
27612;SDS011;15036;48.094;-1.690;2023-02-25T03:04:56;20.23;;;14.02;;
27612;SDS011;15036;48.094;-1.690;2023-02-25T03:07:28;23.17;;;14.98;;
27612;SDS011;15036;48.094;-1.690;2023-02-25T03:09:59;22.35;;;14.50;;
27612;SDS011;15036;48.094;-1.690;2023-02-25T03:12:27;19.95;;;13.73;;
27612;SDS011;15036;48.094;-1.690;2023-02-25T03:14:54;20.90;;;14.48;;
27612;SDS011;15036;48.094;-1.690;2023-02-25T03:17:21;23.92;;;15.27;;
27612;SDS011;15036;48.094;-1.690;2023-02-25T03:22:23;21.40;;;13.88;;
27612;SDS011;15036;48.094;-1.690;2023-02-25T03:24:57;21.42;;;14.27;;
27612;SDS011;15036;48.094;-1.690;2023-02-25T03:27:32;21.98;;;13.48;;
27612;SDS011;15036;48.094;-1.690;2023-02-25T03:30:35;20.92;;;13.65;;
27612;SDS011;15036;48.094;-1.690;2023-02-25T03:35:40;22.35;;;13.82;;
27612;SDS011;15036;48.094;-1.690;2023-02-25T03:38:10;20.52;;;13.88;;
27612;SDS011;15036;48.094;-1.690;2023-02-25T03:40:40;21.85;;;13.73;;
27612;SDS011;15036;48.094;-1.690;2023-02-25T03:43:10;20.98;;;13.15;;
27612;SDS011;15036;48.094;-1.690;2023-02-25T03:45:40;20.70;;;13.20;;
27612;SDS011;15036;48.094;-1.690;2023-02-25T03:48:08;21.00;;;13.38;;
27612;SDS011;15036;48.094;-1.690;2023-02-25T03:50:39;20.95;;;13.82;;
27612;SDS011;15036;48.094;-1.690;2023-02-25T03:53:12;25.10;;;13.20;;
27612;SDS011;15036;48.094;-1.690;2023-02-25T03:55:38;19.23;;;12.35;;
27612;SDS011;15036;48.094;-1.690;2023-02-25T03:58:06;18.42;;;12.40;;
27612;SDS011;15036;48.094;-1.690;2023-02-25T04:00:32;20.85;;;12.40;;
27612;SDS011;15036;48.094;-1.690;2023-02-25T04:02:58;24.27;;;13.65;;
27612;SDS011;15036;48.094;-1.690;2023-02-25T04:05:24;20.33;;;12.93;;
27612;SDS011;15036;48.094;-1.690;2023-02-25T04:07:53;21.23;;;12.93;;
27612;SDS011;15036;48.094;-1.690;2023-02-25T04:10:19;20.58;;;12.65;;
27612;SDS011;15036;48.094;-1.690;2023-02-25T04:12:44;21.55;;;13.23;;
27612;SDS011;15036;48.094;-1.690;2023-02-25T04:15:10;20.52;;;12.55;;
27612;SDS011;15036;48.094;-1.690;2023-02-25T04:17:38;20.17;;;13.27;;
27612;SDS011;15036;48.094;-1.690;2023-02-25T04:20:03;20.08;;;12.77;;
27612;SDS011;15036;48.094;-1.690;2023-02-25T04:22:30;26.95;;;13.43;;
27612;SDS011;15036;48.094;-1.690;2023-02-25T04:24:56;23.88;;;13.80;;
27612;SDS011;15036;48.094;-1.690;2023-02-25T04:27:21;20.75;;;13.25;;
27612;SDS011;15036;48.094;-1.690;2023-02-25T04:29:46;22.90;;;12.88;;
27612;SDS011;15036;48.094;-1.690;2023-02-25T04:32:12;18.05;;;12.25;;
27612;SDS011;15036;48.094;-1.690;2023-02-25T04:34:37;23.17;;;13.32;;
27612;SDS011;15036;48.094;-1.690;2023-02-25T04:37:03;21.02;;;12.80;;
27612;SDS011;15036;48.094;-1.690;2023-02-25T04:39:29;22.23;;;12.68;;
27612;SDS011;15036;48.094;-1.690;2023-02-25T04:41:56;20.67;;;12.98;;
27612;SDS011;15036;48.094;-1.690;2023-02-25T04:44:22;22.77;;;13.60;;
27612;SDS011;15036;48.094;-1.690;2023-02-25T04:46:47;20.27;;;12.25;;
27612;SDS011;15036;48.094;-1.690;2023-02-25T04:49:16;19.67;;;12.23;;
27612;SDS011;15036;48.094;-1.690;2023-02-25T04:51:44;20.58;;;12.75;;
27612;SDS011;15036;48.094;-1.690;2023-02-25T04:54:09;22.45;;;12.23;;
27612;SDS011;15036;48.094;-1.690;2023-02-25T04:56:36;19.15;;;11.75;;
27612;SDS011;15036;48.094;-1.690;2023-02-25T04:59:02;20.00;;;12.50;;
27612;SDS011;15036;48.094;-1.690;2023-02-25T05:01:27;22.20;;;12.48;;
27612;SDS011;15036;48.094;-1.690;2023-02-25T05:03:55;22.30;;;12.18;;
27612;SDS011;15036;48.094;-1.690;2023-02-25T05:06:23;21.55;;;11.70;;
27612;SDS011;15036;48.094;-1.690;2023-02-25T05:08:49;19.20;;;11.18;;
27612;SDS011;15036;48.094;-1.690;2023-02-25T05:11:15;19.77;;;12.18;;
27612;SDS011;15036;48.094;-1.690;2023-02-25T05:13:40;19.77;;;11.55;;
27612;SDS011;15036;48.094;-1.690;2023-02-25T05:16:07;17.88;;;12.13;;
27612;SDS011;15036;48.094;-1.690;2023-02-25T05:18:38;19.23;;;10.88;;
27612;SDS011;15036;48.094;-1.690;2023-02-25T05:21:08;17.23;;;10.43;;
27612;SDS011;15036;48.094;-1.690;2023-02-25T05:23:39;18.27;;;10.90;;
27612;SDS011;15036;48.094;-1.690;2023-02-25T05:26:05;18.55;;;11.60;;
27612;SDS011;15036;48.094;-1.690;2023-02-25T05:28:30;17.40;;;10.73;;
27612;SDS011;15036;48.094;-1.690;2023-02-25T05:30:56;18.17;;;10.82;;
27612;SDS011;15036;48.094;-1.690;2023-02-25T05:33:21;18.85;;;10.38;;
27612;SDS011;15036;48.094;-1.690;2023-02-25T05:35:51;20.02;;;10.95;;
27612;SDS011;15036;48.094;-1.690;2023-02-25T05:38:16;16.27;;;9.50;;
27612;SDS011;15036;48.094;-1.690;2023-02-25T05:40:41;15.05;;;10.07;;
27612;SDS011;15036;48.094;-1.690;2023-02-25T05:43:07;21.70;;;9.63;;
27612;SDS011;15036;48.094;-1.690;2023-02-25T05:45:33;14.98;;;8.77;;
27612;SDS011;15036;48.094;-1.690;2023-02-25T05:47:58;16.95;;;9.70;;
27612;SDS011;15036;48.094;-1.690;2023-02-25T05:50:24;15.07;;;9.52;;
27612;SDS011;15036;48.094;-1.690;2023-02-25T05:52:49;15.90;;;8.32;;
27612;SDS011;15036;48.094;-1.690;2023-02-25T05:55:14;20.92;;;9.10;;
27612;SDS011;15036;48.094;-1.690;2023-02-25T05:57:40;17.40;;;9.02;;
27612;SDS011;15036;48.094;-1.690;2023-02-25T06:00:06;19.77;;;8.70;;
27612;SDS011;15036;48.094;-1.690;2023-02-25T06:02:34;18.02;;;9.45;;
27612;SDS011;15036;48.094;-1.690;2023-02-25T06:05:00;15.50;;;8.23;;
27612;SDS011;15036;48.094;-1.690;2023-02-25T06:07:27;14.32;;;7.95;;
27612;SDS011;15036;48.094;-1.690;2023-02-25T06:09:54;13.20;;;7.03;;
27612;SDS011;15036;48.094;-1.690;2023-02-25T06:12:23;13.23;;;7.18;;
27612;SDS011;15036;48.094;-1.690;2023-02-25T06:14:49;14.07;;;7.35;;
27612;SDS011;15036;48.094;-1.690;2023-02-25T06:17:14;15.18;;;7.43;;
27612;SDS011;15036;48.094;-1.690;2023-02-25T06:19:40;11.68;;;7.45;;
27612;SDS011;15036;48.094;-1.690;2023-02-25T06:22:05;14.73;;;8.02;;
27612;SDS011;15036;48.094;-1.690;2023-02-25T06:24:30;14.68;;;7.82;;
27612;SDS011;15036;48.094;-1.690;2023-02-25T06:26:56;13.95;;;6.80;;
27612;SDS011;15036;48.094;-1.690;2023-02-25T06:29:21;15.38;;;7.57;;
27612;SDS011;15036;48.094;-1.690;2023-02-25T06:31:48;16.25;;;7.30;;
27612;SDS011;15036;48.094;-1.690;2023-02-25T06:34:14;14.40;;;7.63;;
27612;SDS011;15036;48.094;-1.690;2023-02-25T06:36:39;11.93;;;7.07;;
27612;SDS011;15036;48.094;-1.690;2023-02-25T06:39:04;14.77;;;7.63;;
27612;SDS011;15036;48.094;-1.690;2023-02-25T06:41:30;13.77;;;6.82;;
27612;SDS011;15036;48.094;-1.690;2023-02-25T06:43:55;12.13;;;6.47;;
27612;SDS011;15036;48.094;-1.690;2023-02-25T06:46:24;16.10;;;6.35;;
27612;SDS011;15036;48.094;-1.690;2023-02-25T06:48:50;15.30;;;6.15;;
27612;SDS011;15036;48.094;-1.690;2023-02-25T06:51:16;13.48;;;6.78;;
27612;SDS011;15036;48.094;-1.690;2023-02-25T06:53:42;11.20;;;6.35;;
27612;SDS011;15036;48.094;-1.690;2023-02-25T06:56:09;13.05;;;6.15;;
27612;SDS011;15036;48.094;-1.690;2023-02-25T06:58:36;11.02;;;6.30;;
27612;SDS011;15036;48.094;-1.690;2023-02-25T07:01:06;10.25;;;5.65;;
27612;SDS011;15036;48.094;-1.690;2023-02-25T07:03:35;13.18;;;5.82;;
27612;SDS011;15036;48.094;-1.690;2023-02-25T07:06:00;12.55;;;6.18;;
27612;SDS011;15036;48.094;-1.690;2023-02-25T07:08:26;10.90;;;5.25;;
27612;SDS011;15036;48.094;-1.690;2023-02-25T07:10:51;11.70;;;5.38;;
27612;SDS011;15036;48.094;-1.690;2023-02-25T07:13:16;12.50;;;5.90;;
27612;SDS011;15036;48.094;-1.690;2023-02-25T07:15:42;13.25;;;5.15;;
27612;SDS011;15036;48.094;-1.690;2023-02-25T07:18:07;10.80;;;5.40;;
27612;SDS011;15036;48.094;-1.690;2023-02-25T07:20:33;12.25;;;5.28;;
27612;SDS011;15036;48.094;-1.690;2023-02-25T07:23:01;13.23;;;6.03;;
27612;SDS011;15036;48.094;-1.690;2023-02-25T07:25:28;9.60;;;4.88;;
27612;SDS011;15036;48.094;-1.690;2023-02-25T07:27:53;12.15;;;5.65;;
27612;SDS011;15036;48.094;-1.690;2023-02-25T07:30:19;10.30;;;5.07;;
27612;SDS011;15036;48.094;-1.690;2023-02-25T07:32:44;8.68;;;4.38;;
27612;SDS011;15036;48.094;-1.690;2023-02-25T07:35:09;8.57;;;4.50;;
27612;SDS011;15036;48.094;-1.690;2023-02-25T07:37:35;9.98;;;4.82;;
27612;SDS011;15036;48.094;-1.690;2023-02-25T07:40:01;7.72;;;4.47;;
27612;SDS011;15036;48.094;-1.690;2023-02-25T07:42:28;9.82;;;4.55;;
27612;SDS011;15036;48.094;-1.690;2023-02-25T07:44:53;8.73;;;4.22;;
27612;SDS011;15036;48.094;-1.690;2023-02-25T07:47:19;10.80;;;4.10;;
27612;SDS011;15036;48.094;-1.690;2023-02-25T07:49:45;10.50;;;4.38;;
27612;SDS011;15036;48.094;-1.690;2023-02-25T07:52:11;10.20;;;4.03;;
27612;SDS011;15036;48.094;-1.690;2023-02-25T07:54:36;10.30;;;4.25;;
27612;SDS011;15036;48.094;-1.690;2023-02-25T07:57:02;10.95;;;4.53;;
27612;SDS011;15036;48.094;-1.690;2023-02-25T07:59:27;11.55;;;3.95;;
27612;SDS011;15036;48.094;-1.690;2023-02-25T08:01:52;12.27;;;3.85;;
27612;SDS011;15036;48.094;-1.690;2023-02-25T08:04:18;8.98;;;4.07;;
27612;SDS011;15036;48.094;-1.690;2023-02-25T08:06:43;9.48;;;4.40;;
27612;SDS011;15036;48.094;-1.690;2023-02-25T08:09:10;10.07;;;4.03;;
27612;SDS011;15036;48.094;-1.690;2023-02-25T08:11:36;10.32;;;4.30;;
27612;SDS011;15036;48.094;-1.690;2023-02-25T08:14:02;6.95;;;3.85;;
27612;SDS011;15036;48.094;-1.690;2023-02-25T08:16:29;11.98;;;4.25;;
27612;SDS011;15036;48.094;-1.690;2023-02-25T08:18:56;10.52;;;4.40;;
27612;SDS011;15036;48.094;-1.690;2023-02-25T08:21:22;8.20;;;3.60;;
27612;SDS011;15036;48.094;-1.690;2023-02-25T08:23:47;10.00;;;4.22;;
27612;SDS011;15036;48.094;-1.690;2023-02-25T08:26:13;9.10;;;3.42;;
27612;SDS011;15036;48.094;-1.690;2023-02-25T08:28:41;11.93;;;4.03;;
27612;SDS011;15036;48.094;-1.690;2023-02-25T08:31:08;13.20;;;3.67;;
27612;SDS011;15036;48.094;-1.690;2023-02-25T08:33:36;11.85;;;3.70;;
27612;SDS011;15036;48.094;-1.690;2023-02-25T08:38:40;11.02;;;3.92;;
27612;SDS011;15036;48.094;-1.690;2023-02-25T08:41:06;8.55;;;3.20;;
27612;SDS011;15036;48.094;-1.690;2023-02-25T08:43:32;11.65;;;3.92;;
27612;SDS011;15036;48.094;-1.690;2023-02-25T08:45:58;8.80;;;3.03;;
27612;SDS011;15036;48.094;-1.690;2023-02-25T08:48:24;10.05;;;3.30;;
27612;SDS011;15036;48.094;-1.690;2023-02-25T08:50:49;11.23;;;3.67;;
27612;SDS011;15036;48.094;-1.690;2023-02-25T08:53:14;8.77;;;3.33;;
27612;SDS011;15036;48.094;-1.690;2023-02-25T08:55:40;10.98;;;3.83;;
27612;SDS011;15036;48.094;-1.690;2023-02-25T08:58:06;10.77;;;3.53;;
27612;SDS011;15036;48.094;-1.690;2023-02-25T09:00:31;9.48;;;3.10;;
27612;SDS011;15036;48.094;-1.690;2023-02-25T09:02:57;12.10;;;3.65;;
27612;SDS011;15036;48.094;-1.690;2023-02-25T09:05:22;11.52;;;3.60;;
27612;SDS011;15036;48.094;-1.690;2023-02-25T09:07:50;10.15;;;3.30;;
27612;SDS011;15036;48.094;-1.690;2023-02-25T09:10:16;9.63;;;3.13;;
27612;SDS011;15036;48.094;-1.690;2023-02-25T09:12:42;8.93;;;3.28;;
27612;SDS011;15036;48.094;-1.690;2023-02-25T09:15:09;8.15;;;3.35;;
27612;SDS011;15036;48.094;-1.690;2023-02-25T09:17:35;8.80;;;3.10;;
27612;SDS011;15036;48.094;-1.690;2023-02-25T09:20:01;8.27;;;3.17;;
27612;SDS011;15036;48.094;-1.690;2023-02-25T09:22:30;9.90;;;3.40;;
27612;SDS011;15036;48.094;-1.690;2023-02-25T09:24:57;7.43;;;3.00;;
27612;SDS011;15036;48.094;-1.690;2023-02-25T09:27:22;9.23;;;3.10;;
27612;SDS011;15036;48.094;-1.690;2023-02-25T09:29:47;9.07;;;3.00;;
27612;SDS011;15036;48.094;-1.690;2023-02-25T09:32:17;7.10;;;2.60;;
27612;SDS011;15036;48.094;-1.690;2023-02-25T09:34:44;10.13;;;3.00;;
27612;SDS011;15036;48.094;-1.690;2023-02-25T09:37:10;10.38;;;2.85;;
27612;SDS011;15036;48.094;-1.690;2023-02-25T09:39:37;9.75;;;2.80;;
27612;SDS011;15036;48.094;-1.690;2023-02-25T09:42:06;6.75;;;2.38;;
27612;SDS011;15036;48.094;-1.690;2023-02-25T09:44:46;8.38;;;2.53;;
27612;SDS011;15036;48.094;-1.690;2023-02-25T09:47:15;7.10;;;2.58;;
27612;SDS011;15036;48.094;-1.690;2023-02-25T09:49:45;8.50;;;2.72;;
27612;SDS011;15036;48.094;-1.690;2023-02-25T09:54:51;8.43;;;2.40;;
27612;SDS011;15036;48.094;-1.690;2023-02-25T09:57:20;6.32;;;2.67;;
27612;SDS011;15036;48.094;-1.690;2023-02-25T09:59:47;7.97;;;2.47;;
27612;SDS011;15036;48.094;-1.690;2023-02-25T10:02:35;7.78;;;2.17;;
27612;SDS011;15036;48.094;-1.690;2023-02-25T10:07:33;6.90;;;2.20;;
27612;SDS011;15036;48.094;-1.690;2023-02-25T10:12:46;6.70;;;2.70;;
27612;SDS011;15036;48.094;-1.690;2023-02-25T10:15:34;10.68;;;2.72;;
27612;SDS011;15036;48.094;-1.690;2023-02-25T10:18:36;9.38;;;2.67;;
27612;SDS011;15036;48.094;-1.690;2023-02-25T10:26:50;8.30;;;2.60;;
27612;SDS011;15036;48.094;-1.690;2023-02-25T10:29:23;6.55;;;2.42;;
27612;SDS011;15036;48.094;-1.690;2023-02-25T10:31:54;6.90;;;2.28;;
27612;SDS011;15036;48.094;-1.690;2023-02-25T10:34:24;7.50;;;2.28;;
27612;SDS011;15036;48.094;-1.690;2023-02-25T10:36:56;6.93;;;2.40;;
27612;SDS011;15036;48.094;-1.690;2023-02-25T10:39:23;5.93;;;2.20;;
27612;SDS011;15036;48.094;-1.690;2023-02-25T10:41:50;7.78;;;2.28;;
27612;SDS011;15036;48.094;-1.690;2023-02-25T10:44:16;7.78;;;2.63;;
27612;SDS011;15036;48.094;-1.690;2023-02-25T10:49:14;7.03;;;2.00;;
27612;SDS011;15036;48.094;-1.690;2023-02-25T10:54:46;5.60;;;1.90;;
27612;SDS011;15036;48.094;-1.690;2023-02-25T10:57:26;6.72;;;1.67;;
27612;SDS011;15036;48.094;-1.690;2023-02-25T11:00:02;6.28;;;2.15;;
27612;SDS011;15036;48.094;-1.690;2023-02-25T11:02:40;5.00;;;1.60;;
27612;SDS011;15036;48.094;-1.690;2023-02-25T11:05:27;4.82;;;1.50;;
27612;SDS011;15036;48.094;-1.690;2023-02-25T11:08:03;6.22;;;1.52;;
27612;SDS011;15036;48.094;-1.690;2023-02-25T11:10:33;5.38;;;1.38;;
27612;SDS011;15036;48.094;-1.690;2023-02-25T11:12:59;5.03;;;1.30;;
27612;SDS011;15036;48.094;-1.690;2023-02-25T11:15:28;6.38;;;1.65;;
27612;SDS011;15036;48.094;-1.690;2023-02-25T11:20:35;7.47;;;1.92;;
27612;SDS011;15036;48.094;-1.690;2023-02-25T11:23:01;6.38;;;1.80;;
27612;SDS011;15036;48.094;-1.690;2023-02-25T11:25:34;5.63;;;1.70;;
27612;SDS011;15036;48.094;-1.690;2023-02-25T11:28:03;6.93;;;2.22;;
27612;SDS011;15036;48.094;-1.690;2023-02-25T11:30:35;8.48;;;2.10;;
27612;SDS011;15036;48.094;-1.690;2023-02-25T11:33:22;7.45;;;2.00;;
27612;SDS011;15036;48.094;-1.690;2023-02-25T11:35:54;7.57;;;1.88;;
27612;SDS011;15036;48.094;-1.690;2023-02-25T11:41:14;5.65;;;2.30;;
27612;SDS011;15036;48.094;-1.690;2023-02-25T11:43:41;5.85;;;2.10;;
27612;SDS011;15036;48.094;-1.690;2023-02-25T11:46:09;7.88;;;2.22;;
27612;SDS011;15036;48.094;-1.690;2023-02-25T11:56:35;7.93;;;1.80;;
27612;SDS011;15036;48.094;-1.690;2023-02-25T12:04:17;6.93;;;2.90;;
27612;SDS011;15036;48.094;-1.690;2023-02-25T12:27:36;5.20;;;1.48;;
27612;SDS011;15036;48.094;-1.690;2023-02-25T12:39:21;6.43;;;1.83;;
27612;SDS011;15036;48.094;-1.690;2023-02-25T12:41:58;5.05;;;1.80;;
27612;SDS011;15036;48.094;-1.690;2023-02-25T12:55:33;6.32;;;1.85;;
27612;SDS011;15036;48.094;-1.690;2023-02-25T13:01:13;7.15;;;1.60;;
27612;SDS011;15036;48.094;-1.690;2023-02-25T13:14:39;4.20;;;1.27;;
27612;SDS011;15036;48.094;-1.690;2023-02-25T13:28:20;4.55;;;1.40;;
27612;SDS011;15036;48.094;-1.690;2023-02-25T13:33:52;4.68;;;1.58;;
27612;SDS011;15036;48.094;-1.690;2023-02-25T13:36:56;7.22;;;1.85;;
27612;SDS011;15036;48.094;-1.690;2023-02-25T13:42:12;6.95;;;1.77;;
27612;SDS011;15036;48.094;-1.690;2023-02-25T13:59:11;6.85;;;2.17;;
27612;SDS011;15036;48.094;-1.690;2023-02-25T14:18:51;7.00;;;1.88;;
27612;SDS011;15036;48.094;-1.690;2023-02-25T14:27:22;7.15;;;1.85;;
27612;SDS011;15036;48.094;-1.690;2023-02-25T14:35:50;6.25;;;2.05;;
27612;SDS011;15036;48.094;-1.690;2023-02-25T14:44:13;7.47;;;2.03;;
27612;SDS011;15036;48.094;-1.690;2023-02-25T14:46:52;5.20;;;1.88;;
27612;SDS011;15036;48.094;-1.690;2023-02-25T14:49:24;6.65;;;2.00;;
27612;SDS011;15036;48.094;-1.690;2023-02-25T14:52:14;6.43;;;1.92;;
27612;SDS011;15036;48.094;-1.690;2023-02-25T14:57:53;5.50;;;1.48;;
27612;SDS011;15036;48.094;-1.690;2023-02-25T15:03:56;5.22;;;2.10;;
27612;SDS011;15036;48.094;-1.690;2023-02-25T15:22:09;6.80;;;2.47;;
27612;SDS011;15036;48.094;-1.690;2023-02-25T15:24:08;5.95;;;2.20;;
27612;SDS011;15036;48.094;-1.690;2023-02-25T15:26:56;5.28;;;2.20;;
27612;SDS011;15036;48.094;-1.690;2023-02-25T15:37:24;4.93;;;2.17;;
27612;SDS011;15036;48.094;-1.690;2023-02-25T15:39:53;7.68;;;2.65;;
27612;SDS011;15036;48.094;-1.690;2023-02-25T16:03:45;12.35;;;4.43;;
27612;SDS011;15036;48.094;-1.690;2023-02-25T16:09:13;10.07;;;4.10;;
27612;SDS011;15036;48.094;-1.690;2023-02-25T16:11:44;8.70;;;3.45;;
27612;SDS011;15036;48.094;-1.690;2023-02-25T16:14:20;9.88;;;3.60;;
27612;SDS011;15036;48.094;-1.690;2023-02-25T16:16:56;12.52;;;4.57;;
27612;SDS011;15036;48.094;-1.690;2023-02-25T16:19:24;8.55;;;3.70;;
27612;SDS011;15036;48.094;-1.690;2023-02-25T16:22:02;12.68;;;4.22;;
27612;SDS011;15036;48.094;-1.690;2023-02-25T16:24:32;9.00;;;3.90;;
27612;SDS011;15036;48.094;-1.690;2023-02-25T16:27:01;11.57;;;3.83;;
27612;SDS011;15036;48.094;-1.690;2023-02-25T16:29:33;10.93;;;3.92;;
27612;SDS011;15036;48.094;-1.690;2023-02-25T16:32:53;9.98;;;3.97;;
27612;SDS011;15036;48.094;-1.690;2023-02-25T16:40:50;8.13;;;3.00;;
27612;SDS011;15036;48.094;-1.690;2023-02-25T16:43:18;7.13;;;3.25;;
27612;SDS011;15036;48.094;-1.690;2023-02-25T16:46:03;8.32;;;3.45;;
27612;SDS011;15036;48.094;-1.690;2023-02-25T16:51:28;8.13;;;3.92;;
27612;SDS011;15036;48.094;-1.690;2023-02-25T16:54:02;10.43;;;3.78;;
27612;SDS011;15036;48.094;-1.690;2023-02-25T16:56:32;9.77;;;3.67;;
27612;SDS011;15036;48.094;-1.690;2023-02-25T17:01:34;11.82;;;3.70;;
27612;SDS011;15036;48.094;-1.690;2023-02-25T17:04:23;10.05;;;3.47;;
27612;SDS011;15036;48.094;-1.690;2023-02-25T17:07:04;8.65;;;3.70;;
27612;SDS011;15036;48.094;-1.690;2023-02-25T17:09:31;12.30;;;4.10;;
27612;SDS011;15036;48.094;-1.690;2023-02-25T17:11:57;9.23;;;3.58;;
27612;SDS011;15036;48.094;-1.690;2023-02-25T17:14:24;7.70;;;4.22;;
27612;SDS011;15036;48.094;-1.690;2023-02-25T17:16:51;8.63;;;3.75;;
27612;SDS011;15036;48.094;-1.690;2023-02-25T17:19:17;12.18;;;4.63;;
27612;SDS011;15036;48.094;-1.690;2023-02-25T17:21:49;12.05;;;3.72;;
27612;SDS011;15036;48.094;-1.690;2023-02-25T17:24:18;7.53;;;3.50;;
27612;SDS011;15036;48.094;-1.690;2023-02-25T17:26:47;11.63;;;4.13;;
27612;SDS011;15036;48.094;-1.690;2023-02-25T17:29:15;7.38;;;3.70;;
27612;SDS011;15036;48.094;-1.690;2023-02-25T17:31:42;9.68;;;3.55;;
27612;SDS011;15036;48.094;-1.690;2023-02-25T17:34:14;10.77;;;3.75;;
27612;SDS011;15036;48.094;-1.690;2023-02-25T17:36:42;10.80;;;4.15;;
27612;SDS011;15036;48.094;-1.690;2023-02-25T17:39:14;8.38;;;4.20;;
27612;SDS011;15036;48.094;-1.690;2023-02-25T17:41:42;8.88;;;3.40;;
27612;SDS011;15036;48.094;-1.690;2023-02-25T17:44:12;7.85;;;3.90;;
27612;SDS011;15036;48.094;-1.690;2023-02-25T17:47:12;8.20;;;4.22;;
27612;SDS011;15036;48.094;-1.690;2023-02-25T17:49:44;10.85;;;4.70;;
27612;SDS011;15036;48.094;-1.690;2023-02-25T17:52:18;10.30;;;4.75;;
27612;SDS011;15036;48.094;-1.690;2023-02-25T17:54:45;11.30;;;4.78;;
27612;SDS011;15036;48.094;-1.690;2023-02-25T17:57:16;9.55;;;4.88;;
27612;SDS011;15036;48.094;-1.690;2023-02-25T17:59:53;13.23;;;5.18;;
27612;SDS011;15036;48.094;-1.690;2023-02-25T18:02:30;8.45;;;4.97;;
27612;SDS011;15036;48.094;-1.690;2023-02-25T18:10:49;11.25;;;4.55;;
27612;SDS011;15036;48.094;-1.690;2023-02-25T18:12:56;12.13;;;4.30;;
27612;SDS011;15036;48.094;-1.690;2023-02-25T18:15:30;14.55;;;4.22;;
27612;SDS011;15036;48.094;-1.690;2023-02-25T18:17:58;9.70;;;3.90;;
27612;SDS011;15036;48.094;-1.690;2023-02-25T18:22:52;13.45;;;3.92;;
27612;SDS011;15036;48.094;-1.690;2023-02-25T18:27:56;10.02;;;4.18;;
27612;SDS011;15036;48.094;-1.690;2023-02-25T18:30:22;13.15;;;3.80;;
27612;SDS011;15036;48.094;-1.690;2023-02-25T18:32:50;9.45;;;3.58;;
27612;SDS011;15036;48.094;-1.690;2023-02-25T18:35:16;11.02;;;3.22;;
27612;SDS011;15036;48.094;-1.690;2023-02-25T18:37:42;11.18;;;3.20;;
27612;SDS011;15036;48.094;-1.690;2023-02-25T18:40:31;9.95;;;2.90;;
27612;SDS011;15036;48.094;-1.690;2023-02-25T18:43:03;11.85;;;3.40;;
27612;SDS011;15036;48.094;-1.690;2023-02-25T18:45:29;10.70;;;3.03;;
27612;SDS011;15036;48.094;-1.690;2023-02-25T18:47:55;10.90;;;3.90;;
27612;SDS011;15036;48.094;-1.690;2023-02-25T18:50:21;10.45;;;3.00;;